Time;durP1;ratioP1;P1;durP2;ratioP2;P2;SDS_P1;SDS_P2;PMS_P1;PMS_P2;Temp;Humidity;BMP_temperature;BMP_pressure;BME280_temperature;BME280_humidity;BME280_pressure;Samples;Min_cycle;Max_cycle;Signal;HPM_P1;HPM_P2
2022/06/12 00:00:25;;;;;;;;;;;;;;;21.65;60.37;99993.00;4368229;32;20350;-88
2022/06/12 00:02:50;;;;;;;;;;;;;;;21.70;60.38;99986.41;4380885;32;19990;-88
2022/06/12 00:05:16;;;;;;;;;;;;;;;21.72;60.37;99989.78;4380769;32;20005;-88
2022/06/12 00:07:41;;;;;;;;;;;;;;;21.78;60.37;99979.72;4393143;32;19997;-88
2022/06/12 00:10:06;;;;;;;;;;;;;;;21.69;60.37;99982.06;4380274;32;19970;-88
2022/06/12 00:12:32;;;;;;;;;;;;;;;21.59;60.37;99988.19;4393057;32;20069;-88
2022/06/12 00:14:57;;;;;;;;;;;;;;;21.59;60.36;99994.31;4380268;32;22725;-88
2022/06/12 00:17:23;;;;;;;;;;;;;;;21.56;60.36;99978.66;4380672;32;19974;-88
2022/06/12 00:19:49;;;;;;;;;;;;;;;21.40;60.35;99981.56;4380632;32;20304;-88
2022/06/12 00:22:15;;;;;;;;;;;;;;;21.45;60.35;99975.94;4380865;32;19990;-88
2022/06/12 00:24:40;;;;;;;;;;;;;;;21.42;60.36;99970.87;4380629;32;20279;-88
2022/06/12 00:27:05;;;;;;;;;;;;;;;21.40;60.36;99978.09;4368254;32;20005;-88
2022/06/12 00:29:31;;;;;;;;;;;;;;;21.26;60.35;99970.28;4380315;32;20801;-88
2022/06/12 00:31:57;;;;;;;;;;;;;;;21.15;60.34;99963.94;4380838;32;20071;-88
2022/06/12 00:34:26;;;;;;;;;;;;;;;21.09;60.34;99968.84;4380877;32;20044;-88
2022/06/12 00:36:51;;;;;;;;;;;;;;;21.17;60.33;99966.47;4381021;32;19975;-88
2022/06/12 00:39:16;;;;;;;;;;;;;;;21.19;60.34;99966.38;4394050;32;20464;-88
2022/06/12 00:41:42;;;;;;;;;;;;;;;20.87;60.33;99960.75;4380646;32;20014;-88
2022/06/12 00:44:08;;;;;;;;;;;;;;;21.27;60.35;99967.53;4380886;32;19986;-88
2022/06/12 00:46:33;;;;;;;;;;;;;;;21.12;60.34;99965.97;4376016;32;19982;-88
2022/06/12 00:48:58;;;;;;;;;;;;;;;21.12;60.34;99965.97;4399933;32;19970;-88
2022/06/12 00:51:24;;;;;;;;;;;;;;;21.17;60.33;99963.00;4379913;32;26954;-88
2022/06/12 00:53:54;;;;;;;;;;;;;;;21.50;60.36;99955.25;4379731;32;25102;-88
2022/06/12 00:56:21;;;;;;;;;;;;;;;21.17;60.35;99968.28;4367870;32;19979;-88
2022/06/12 00:58:49;;;;;;;;;;;;;;;20.92;60.33;99971.84;4380554;32;19989;-87
2022/06/12 01:01:18;;;;;;;;;;;;;;;20.60;60.31;99967.03;4380357;32;19982;-88
2022/06/12 01:06:34;;;;;;;;;;;;;;;20.74;60.32;99964.25;4382125;32;19992;-88
2022/06/12 01:09:00;;;;;;;;;;;;;;;20.99;60.33;99958.06;4393770;32;20054;-88
2022/06/12 01:11:26;;;;;;;;;;;;;;;21.05;60.33;99954.97;4393611;32;20032;-88
2022/06/12 01:13:51;;;;;;;;;;;;;;;21.09;60.34;99959.09;4366962;32;20051;-88
2022/06/12 01:16:17;;;;;;;;;;;;;;;21.04;60.34;99955.91;4393191;32;21772;-87
2022/06/12 01:18:53;;;;;;;;;;;;;;;21.19;60.34;99953.13;4380000;32;19970;-88
2022/06/12 01:21:29;;;;;;;;;;;;;;;21.23;60.34;99957.25;4379936;32;19987;-88
2022/06/12 01:24:10;;;;;;;;;;;;;;;21.23;60.34;99954.59;4379985;32;19986;-88
2022/06/12 01:26:43;;;;;;;;;;;;;;;21.39;60.36;99953.41;4393598;32;19989;-88
2022/06/12 01:29:27;;;;;;;;;;;;;;;21.39;60.36;99950.75;4379990;32;19975;-88
2022/06/12 01:32:08;;;;;;;;;;;;;;;21.38;60.35;99954.38;4393624;32;20384;-88
2022/06/12 01:34:45;;;;;;;;;;;;;;;21.28;60.34;99955.13;4367431;32;20429;-88
2022/06/12 01:37:19;;;;;;;;;;;;;;;21.26;60.35;99952.59;4393387;32;19989;-88
2022/06/12 01:39:55;;;;;;;;;;;;;;;21.27;60.35;99953.44;4379501;32;20050;-88
2022/06/12 01:42:23;;;;;;;;;;;;;;;21.19;60.34;99959.28;4379527;32;20037;-88
2022/06/12 01:45:03;;;;;;;;;;;;;;;21.27;60.35;99959.59;4367023;32;19990;-88
2022/06/12 01:47:47;;;;;;;;;;;;;;;21.00;60.33;99961.56;4379456;32;20016;-88
2022/06/12 01:50:15;;;;;;;;;;;;;;;21.12;60.34;99953.59;4393442;32;20022;-88
2022/06/12 01:52:59;;;;;;;;;;;;;;;20.93;60.33;99945.28;4366920;32;20005;-89
2022/06/12 01:55:24;;;;;;;;;;;;;;;20.98;60.33;99948.44;4392092;32;20058;-88
2022/06/12 01:57:57;;;;;;;;;;;;;;;21.05;60.33;99946.19;4393227;32;20260;-88
2022/06/12 02:00:23;;;;;;;;;;;;;;;21.03;60.33;99953.38;4379389;32;19989;-88
2022/06/12 02:02:53;;;;;;;;;;;;;;;21.11;60.34;99951.06;4379439;32;20001;-88
2022/06/12 02:05:32;;;;;;;;;;;;;;;21.24;60.34;99951.03;4379342;32;20009;-88
2022/06/12 02:07:59;;;;;;;;;;;;;;;21.01;60.34;99947.34;4366834;32;20057;-88
2022/06/12 02:10:27;;;;;;;;;;;;;;;21.15;60.34;99950.72;4366767;32;20001;-88
2022/06/12 02:13:18;;;;;;;;;;;;;;;21.11;60.34;99943.97;4379283;32;19978;-88
2022/06/12 02:15:48;;;;;;;;;;;;;;;20.93;60.32;99942.63;4378365;32;20351;-88
2022/06/12 02:18:16;;;;;;;;;;;;;;;20.81;60.32;99944.34;4381442;32;20268;-88
2022/06/12 02:20:42;;;;;;;;;;;;;;;21.03;60.33;99945.44;4381442;32;19978;-88
2022/06/12 02:23:11;;;;;;;;;;;;;;;20.93;60.32;99939.13;4395307;32;19986;-88
2022/06/12 02:25:36;;;;;;;;;;;;;;;20.93;60.32;99945.28;4381846;32;20358;-87
2022/06/12 02:28:18;;;;;;;;;;;;;;;20.80;60.32;99944.44;4369243;32;19983;-88
2022/06/12 02:30:45;;;;;;;;;;;;;;;20.75;60.32;99943.94;4382109;32;19987;-89
2022/06/12 02:33:18;;;;;;;;;;;;;;;20.74;60.32;99944.88;4382805;32;19987;-88
2022/06/12 02:35:45;;;;;;;;;;;;;;;20.61;60.31;99952.00;4382426;32;19978;-88
2022/06/12 02:38:16;;;;;;;;;;;;;;;20.59;60.31;99946.84;4383507;32;20023;-88
2022/06/12 02:40:43;;;;;;;;;;;;;;;20.64;60.31;99951.78;4368983;32;19990;-88
2022/06/12 02:43:10;;;;;;;;;;;;;;;20.78;60.32;99957.78;4381028;32;19979;-88
2022/06/12 02:45:41;;;;;;;;;;;;;;;20.67;60.31;99956.88;4381216;32;20426;-87
2022/06/12 02:48:06;;;;;;;;;;;;;;;20.72;60.32;99954.72;4381373;32;20349;-88
2022/06/12 02:50:34;;;;;;;;;;;;;;;20.78;60.33;99944.56;4381125;32;20034;-88
2022/06/12 02:53:02;;;;;;;;;;;;;;;20.67;60.31;99954.22;4368736;32;20005;-88
2022/06/12 02:55:37;;;;;;;;;;;;;;;20.74;60.32;99964.25;4381077;32;20028;-88
2022/06/12 02:58:02;;;;;;;;;;;;;;;20.75;60.32;99952.72;4394778;32;20525;-88
2022/06/12 03:00:37;;;;;;;;;;;;;;;21.01;60.34;99960.59;4381039;32;19993;-88
2022/06/12 03:03:02;;;;;;;;;;;;;;;20.68;60.31;99955.91;4368481;32;19983;-88
2022/06/12 03:05:31;;;;;;;;;;;;;;;20.64;60.31;99952.63;4394883;32;19982;-87
2022/06/12 03:08:00;;;;;;;;;;;;;;;20.43;60.31;99962.91;4368825;32;19971;-88
2022/06/12 03:10:31;;;;;;;;;;;;;;;20.64;60.31;99962.37;4381280;32;20005;-87
2022/06/12 03:12:56;;;;;;;;;;;;;;;20.51;60.30;99963.22;4394841;32;20029;-88
2022/06/12 03:15:40;;;;;;;;;;;;;;;20.47;60.31;99966.19;4394271;32;23299;-88
2022/06/12 03:18:07;;;;;;;;;;;;;;;20.44;60.30;99961.13;4394661;32;19993;-87
2022/06/12 03:20:38;;;;;;;;;;;;;;;20.14;60.28;99974.62;4394585;32;19967;-88
2022/06/12 03:23:10;;;;;;;;;;;;;;;20.43;60.30;99970.84;4368414;32;19998;-87
2022/06/12 03:25:44;;;;;;;;;;;;;;;20.07;60.27;99975.97;4380658;32;20037;-87
2022/06/12 03:28:20;;;;;;;;;;;;;;;20.07;60.27;99973.31;4381088;32;19954;-88
2022/06/12 03:30:45;;;;;;;;;;;;;;;20.04;60.29;99976.16;4381034;32;19993;-88
2022/06/12 03:33:18;;;;;;;;;;;;;;;20.00;60.27;99977.34;4394775;32;19978;-88
2022/06/12 03:36:02;;;;;;;;;;;;;;;20.25;60.29;99958.84;4381154;32;19998;-88
2022/06/12 03:38:47;;;;;;;;;;;;;;;19.91;60.29;99977.00;4393513;32;19978;-88
2022/06/12 03:41:16;;;;;;;;;;;;;;;20.20;60.29;99979.47;4380974;32;19992;-87
2022/06/12 03:43:41;;;;;;;;;;;;;;;19.85;60.26;99979.19;4394613;32;19982;-87
2022/06/12 03:46:24;;;;;;;;;;;;;;;19.81;60.27;99978.56;4394673;32;20342;-88
2022/06/12 03:49:02;;;;;;;;;;;;;;;19.85;60.28;99974.75;4381004;32;20048;-87
2022/06/12 03:51:34;;;;;;;;;;;;;;;19.97;60.28;99978.37;4368167;32;19979;-88
2022/06/12 03:54:05;;;;;;;;;;;;;;;20.12;60.28;99980.00;4378202;32;20005;-88
2022/06/12 03:59:22;;;;;;;;;;;;;;;20.46;60.31;99975.91;4389394;32;20702;-88
2022/06/12 04:01:47;;;;;;;;;;;;;;;20.51;60.30;99980.88;4379365;32;19962;-88
2022/06/12 04:04:12;;;;;;;;;;;;;;;20.59;60.31;99977.72;4390656;32;20041;-87
2022/06/12 04:06:37;;;;;;;;;;;;;;;20.70;60.32;99976.00;4391040;32;20009;-87
2022/06/12 04:09:04;;;;;;;;;;;;;;;20.77;60.33;99979.91;4379318;32;20375;-88
2022/06/12 04:11:30;;;;;;;;;;;;;;;20.65;60.32;99986.06;4390627;32;20362;-88
2022/06/12 04:13:55;;;;;;;;;;;;;;;20.88;60.33;99981.81;4390854;32;19991;-87
2022/06/12 04:16:21;;;;;;;;;;;;;;;20.80;60.32;99984.97;4391223;32;20003;-88
2022/06/12 04:18:46;;;;;;;;;;;;;;;20.54;60.30;99989.44;4391582;32;19994;-88
2022/06/12 04:21:16;;;;;;;;;;;;;;;20.50;60.31;99984.47;4380000;32;26194;-90
2022/06/12 04:23:43;;;;;;;;;;;;;;;20.68;60.31;99983.22;4391121;32;19955;-88
2022/06/12 04:26:21;;;;;;;;;;;;;;;20.84;60.32;99985.63;4393146;32;19994;-88
2022/06/12 04:28:53;;;;;;;;;;;;;;;20.97;60.33;99990.88;4390945;32;19975;-88
2022/06/12 04:31:18;;;;;;;;;;;;;;;21.08;60.32;99989.19;4390526;32;20022;-88
2022/06/12 04:34:02;;;;;;;;;;;;;;;21.33;60.35;99992.72;4390318;32;20320;-88
2022/06/12 04:36:28;;;;;;;;;;;;;;;21.41;60.35;99985.06;4390346;32;20054;-88
2022/06/12 04:38:53;;;;;;;;;;;;;;;21.56;60.36;99993.72;4378510;32;20021;-88
2022/06/12 04:41:20;;;;;;;;;;;;;;;21.54;60.35;99996.47;4379182;32;19966;-89
2022/06/12 04:43:45;;;;;;;;;;;;;;;21.66;60.36;99997.34;4390426;32;19988;-89
2022/06/12 04:46:10;;;;;;;;;;;;;;;21.78;60.38;99991.16;4390284;32;19997;-89
2022/06/12 04:48:37;;;;;;;;;;;;;;;21.89;60.38;99993.84;4389488;32;35187;-88
2022/06/12 04:51:03;;;;;;;;;;;;;;;21.89;60.38;99990.34;4390311;32;19971;-88
2022/06/12 04:53:28;;;;;;;;;;;;;;;21.99;60.38;99993.97;4390071;32;20002;-88
2022/06/12 04:55:53;;;;;;;;;;;;;;;22.07;60.39;99990.81;4389896;32;21545;-88
2022/06/12 04:58:18;;;;;;;;;;;;;;;22.11;60.39;99986.94;4390255;32;20006;-88
2022/06/12 05:00:44;;;;;;;;;;;;;;;22.29;60.40;99994.34;4378602;32;20065;-88
2022/06/12 05:03:11;;;;;;;;;;;;;;;22.17;60.39;99991.78;4390153;32;19995;-88
2022/06/12 05:05:36;;;;;;;;;;;;;;;22.10;60.39;99995.88;4378909;32;19986;-88
2022/06/12 05:08:01;;;;;;;;;;;;;;;22.10;60.39;99991.41;4389611;32;23060;-88
2022/06/12 05:10:27;;;;;;;;;;;;;;;22.17;60.39;99999.72;4378590;32;20252;-88
2022/06/12 05:12:52;;;;;;;;;;;;;;;22.44;60.40;99996.78;4378758;32;19974;-88
2022/06/12 05:15:17;;;;;;;;;;;;;;;22.48;60.40;99987.63;4389830;32;19994;-88
2022/06/12 05:17:43;;;;;;;;;;;;;;;22.49;60.41;99989.31;4389945;32;20686;-86
2022/06/12 05:20:12;;;;;;;;;;;;;;;22.53;60.41;99983.66;4389872;32;20086;-86
2022/06/12 05:22:38;;;;;;;;;;;;;;;22.42;60.41;99988.09;4389924;32;20542;-86
2022/06/12 05:25:03;;;;;;;;;;;;;;;22.59;60.42;99985.81;4389695;32;20260;-86
2022/06/12 05:27:28;;;;;;;;;;;;;;;22.60;60.42;99986.66;4389811;32;19978;-85
2022/06/12 05:29:54;;;;;;;;;;;;;;;22.54;60.41;99995.13;4389742;32;20300;-86
2022/06/12 05:32:19;;;;;;;;;;;;;;;22.67;60.42;100001.12;4378330;32;19972;-85
2022/06/12 05:34:44;;;;;;;;;;;;;;;22.70;60.41;100006.19;4378424;32;19979;-86
2022/06/12 05:37:10;;;;;;;;;;;;;;;22.71;60.42;100012.34;4378447;32;20338;-86
2022/06/12 05:39:35;;;;;;;;;;;;;;;22.66;60.42;100010.91;4378449;32;20347;-85
2022/06/12 05:42:00;;;;;;;;;;;;;;;22.83;60.43;100012.28;4378045;32;20025;-86
2022/06/12 05:44:25;;;;;;;;;;;;;;;22.82;60.43;100007.94;4377665;32;28768;-85
2022/06/12 05:46:51;;;;;;;;;;;;;;;22.84;60.42;100010.47;4389532;32;19971;-86
2022/06/12 05:49:16;;;;;;;;;;;;;;;22.80;60.44;100009.84;4390374;32;20338;-86
2022/06/12 05:51:41;;;;;;;;;;;;;;;22.83;60.43;100006.97;4392048;32;20260;-87
2022/06/12 05:54:07;;;;;;;;;;;;;;;23.02;60.43;100010.84;4391631;32;20363;-87
2022/06/12 05:56:33;;;;;;;;;;;;;;;23.08;60.43;100010.34;4392002;32;20029;-87
2022/06/12 05:58:59;;;;;;;;;;;;;;;23.03;60.43;100001.91;4392453;32;20251;-87
2022/06/12 06:01:24;;;;;;;;;;;;;;;23.12;60.45;100014.44;4391857;32;19990;-86
2022/06/12 06:03:50;;;;;;;;;;;;;;;23.09;60.44;100020.00;4381011;32;20001;-87
2022/06/12 06:06:17;;;;;;;;;;;;;;;23.24;60.45;100013.47;4392844;32;23758;-87
2022/06/12 06:08:42;;;;;;;;;;;;;;;23.42;60.45;100021.75;4394045;32;20026;-86
2022/06/12 06:11:08;;;;;;;;;;;;;;;23.74;60.48;100017.34;4402206;32;19987;-86
2022/06/12 06:13:33;;;;;;;;;;;;;;;23.81;60.47;100020.34;4397301;32;19990;-87
2022/06/12 06:15:58;;;;;;;;;;;;;;;23.95;60.48;100020.03;4391980;32;20244;-87
2022/06/12 06:18:24;;;;;;;;;;;;;;;23.84;60.48;100023.56;4391346;32;20037;-87
2022/06/12 06:20:49;;;;;;;;;;;;;;;24.06;60.49;100019.97;4378775;32;20013;-87
2022/06/12 06:23:14;;;;;;;;;;;;;;;24.18;60.50;100023.44;4380210;32;19978;-87
2022/06/12 06:25:40;;;;;;;;;;;;;;;24.23;60.50;100017.72;4379844;32;20806;-88
2022/06/12 06:28:05;;;;;;;;;;;;;;;24.24;60.50;100014.94;4380710;32;19982;-87
2022/06/12 06:30:30;;;;;;;;;;;;;;;24.34;60.50;100018.53;4393286;32;20002;-87
2022/06/12 06:32:56;;;;;;;;;;;;;;;24.49;60.51;100017.22;4381108;32;19979;-88
2022/06/12 06:35:21;;;;;;;;;;;;;;;24.54;60.51;100011.50;4381409;32;19971;-88
2022/06/12 06:37:47;;;;;;;;;;;;;;;24.76;60.53;100014.00;4381381;32;19970;-88
2022/06/12 06:40:16;;;;;;;;;;;;;;;25.11;60.54;100018.09;4382797;32;19990;-88
2022/06/12 06:42:42;;;;;;;;;;;;;;;25.25;60.55;100019.53;4393423;32;20018;-87
2022/06/12 06:47:51;;;;;;;;;;;;;;;25.64;60.57;100005.31;4390483;32;20029;-89
2022/06/12 06:50:17;;;;;;;;;;;;;;;25.89;60.58;100014.59;4391421;32;19982;-87
2022/06/12 06:52:42;;;;;;;;;;;;;;;26.04;60.59;100014.19;4380014;32;19983;-87
2022/06/12 06:55:09;;;;;;;;;;;;;;;26.26;60.60;100009.41;4393106;32;19978;-87
2022/06/12 06:57:37;;;;;;;;;;;;;;;26.45;60.61;100005.00;4395044;32;19982;-88
2022/06/12 07:00:03;;;;;;;;;;;;;;;26.43;60.61;100018.50;4380658;32;19994;-88
2022/06/12 07:02:28;;;;;;;;;;;;;;;26.47;60.61;100009.22;4394898;32;20000;-89
2022/06/12 07:04:53;;;;;;;;;;;;;;;26.47;60.61;100016.37;4394884;32;20257;-87
2022/06/12 07:07:19;;;;;;;;;;;;;;;26.53;60.61;100011.31;4394913;32;19993;-88
2022/06/12 07:09:44;;;;;;;;;;;;;;;26.59;60.62;100004.56;4394905;32;19978;-87
2022/06/12 07:12:10;;;;;;;;;;;;;;;26.52;60.62;100006.13;4394400;32;27285;-88
2022/06/12 07:14:35;;;;;;;;;;;;;;;26.76;60.63;100008.31;4380812;32;20026;-88
2022/06/12 07:17:00;;;;;;;;;;;;;;;26.80;60.64;100013.19;4381168;32;20009;-87
2022/06/12 07:19:26;;;;;;;;;;;;;;;26.90;60.64;100007.81;4394847;32;20235;-87
2022/06/12 07:21:51;;;;;;;;;;;;;;;27.00;60.64;100005.16;4381135;32;19991;-87
2022/06/12 07:24:16;;;;;;;;;;;;;;;26.95;60.64;100007.34;4394825;32;19986;-88
2022/06/12 07:26:42;;;;;;;;;;;;;;;27.03;60.66;100003.00;4381073;32;20012;-88
2022/06/12 07:29:08;;;;;;;;;;;;;;;26.83;60.64;100004.91;4381295;32;20086;-88
2022/06/12 07:31:33;;;;;;;;;;;;;;;27.03;60.66;100003.00;4381312;32;20023;-87
2022/06/12 07:33:58;;;;;;;;;;;;;;;26.96;60.65;99999.19;4368765;32;20232;-87
2022/06/12 07:36:23;;;;;;;;;;;;;;;27.16;60.65;99987.44;4394653;32;19970;-88
2022/06/12 07:38:49;;;;;;;;;;;;;;;27.19;60.66;99989.81;4394920;32;20005;-87
2022/06/12 07:41:14;;;;;;;;;;;;;;;26.89;60.64;99995.44;4381114;32;19986;-87
2022/06/12 07:43:40;;;;;;;;;;;;;;;27.16;60.65;99992.81;4394792;32;20005;-88
2022/06/12 07:46:05;;;;;;;;;;;;;;;26.93;60.64;99988.81;4381213;32;20005;-87
2022/06/12 07:48:34;;;;;;;;;;;;;;;26.94;60.64;99987.81;4381219;32;20009;-87
2022/06/12 07:51:00;;;;;;;;;;;;;;;26.89;60.64;99990.94;4381639;32;19990;-88
2022/06/12 07:53:25;;;;;;;;;;;;;;;26.98;60.64;99986.56;4381772;32;20031;-88
2022/06/12 07:55:51;;;;;;;;;;;;;;;26.96;60.65;99998.34;4382672;32;19997;-88
2022/06/12 07:58:16;;;;;;;;;;;;;;;26.90;60.64;99992.63;4399133;32;19993;-89
2022/06/12 08:00:42;;;;;;;;;;;;;;;26.99;60.64;99996.28;4391848;32;20005;-88
2022/06/12 08:03:07;;;;;;;;;;;;;;;27.18;60.65;99998.00;4395079;32;19979;-88
2022/06/12 08:05:32;;;;;;;;;;;;;;;27.15;60.66;99993.78;4394795;32;19989;-88
2022/06/12 08:07:57;;;;;;;;;;;;;;;27.27;60.66;99991.75;4380934;32;19990;-88
2022/06/12 08:10:22;;;;;;;;;;;;;;;27.21;60.66;99995.88;4380262;32;20042;-89
2022/06/12 08:12:48;;;;;;;;;;;;;;;27.08;60.65;99995.38;4393665;32;21435;-88
2022/06/12 08:15:15;;;;;;;;;;;;;;;27.27;60.67;99989.09;4380520;32;19990;-87
2022/06/12 08:17:41;;;;;;;;;;;;;;;27.21;60.66;99987.03;4368143;32;20009;-87
2022/06/12 08:20:25;;;;;;;;;;;;;;;27.32;60.66;99988.63;4380492;32;20259;-88
2022/06/12 08:22:52;;;;;;;;;;;;;;;27.34;60.67;99990.16;4394374;32;19988;-88
2022/06/12 08:25:17;;;;;;;;;;;;;;;27.46;60.67;99985.47;4368115;32;19985;-88
2022/06/12 08:27:42;;;;;;;;;;;;;;;27.65;60.68;99982.66;4393833;32;22547;-88
2022/06/12 08:30:07;;;;;;;;;;;;;;;27.83;60.69;99978.13;4380038;32;23476;-87
2022/06/12 08:32:33;;;;;;;;;;;;;;;28.16;60.71;99982.94;4380387;32;20006;-88
2022/06/12 08:34:59;;;;;;;;;;;;;;;28.36;60.71;99971.03;4380718;32;20051;-88
2022/06/12 08:37:26;;;;;;;;;;;;;;;28.09;60.70;99970.16;4380712;32;20000;-88
2022/06/12 08:39:52;;;;;;;;;;;;;;;28.30;60.72;99971.66;4380543;32;19999;-88
2022/06/12 08:42:43;;;;;;;;;;;;;;;28.61;60.74;99969.34;4394030;32;19993;-88
2022/06/12 08:45:13;;;;;;;;;;;;;;;28.73;60.73;99968.06;4390714;32;19977;-87
2022/06/12 08:47:48;;;;;;;;;;;;;;;28.55;60.73;99975.34;4393073;32;20021;-87
2022/06/12 08:50:33;;;;;;;;;;;;;;;28.38;60.72;99972.53;4380417;32;20031;-86
2022/06/12 08:53:02;;;;;;;;;;;;;;;28.47;60.73;99976.13;4380599;32;19984;-85
2022/06/12 08:55:27;;;;;;;;;;;;;;;28.52;60.72;99978.34;4379984;32;20025;-86
2022/06/12 08:57:52;;;;;;;;;;;;;;;28.64;60.73;99977.06;4393697;32;20011;-86
2022/06/12 09:00:19;;;;;;;;;;;;;;;28.66;60.73;99983.94;4394031;32;19997;-85
2022/06/12 09:02:44;;;;;;;;;;;;;;;28.90;60.74;99975.22;4380111;32;19971;-85
2022/06/12 09:05:11;;;;;;;;;;;;;;;29.10;60.76;99974.94;4379894;32;20252;-85
2022/06/12 09:07:36;;;;;;;;;;;;;;;29.25;60.76;99971.47;4393775;32;19978;-85
2022/06/12 09:10:05;;;;;;;;;;;;;;;29.24;60.76;99971.63;4393712;32;19975;-84
2022/06/12 09:12:33;;;;;;;;;;;;;;;29.12;60.76;99973.78;4379803;32;19978;-85
2022/06/12 09:15:08;;;;;;;;;;;;;;;29.01;60.76;99972.22;4379984;32;19986;-84
2022/06/12 09:17:39;;;;;;;;;;;;;;;29.19;60.76;99976.66;4393624;32;19982;-84
2022/06/12 09:20:05;;;;;;;;;;;;;;;29.25;60.76;99978.66;4379861;32;20007;-84
2022/06/12 09:22:54;;;;;;;;;;;;;;;29.67;60.78;99973.25;4393478;32;20062;-83
2022/06/12 09:25:19;;;;;;;;;;;;;;;29.62;60.78;99973.75;4360056;32;19975;-83
2022/06/12 09:27:45;;;;;;;;;;;;;;;29.66;60.79;99968.06;4395444;32;19997;-83
2022/06/12 09:30:13;;;;;;;;;;;;;;;30.01;60.80;99975.75;4395329;32;19983;-83
2022/06/12 09:32:43;;;;;;;;;;;;;;;29.92;60.79;99964.19;4381658;32;20033;-83
2022/06/12 09:35:27;;;;;;;;;;;;;;;29.77;60.79;99962.34;4368931;32;20001;-83
2022/06/12 09:38:20;;;;;;;;;;;;;;;29.44;60.77;99961.47;4395385;32;20033;-83
2022/06/12 09:40:51;;;;;;;;;;;;;;;29.75;60.79;99964.38;4394119;32;20016;-83
2022/06/12 09:43:27;;;;;;;;;;;;;;;29.77;60.79;99967.72;4381397;32;20013;-83
2022/06/12 09:46:11;;;;;;;;;;;;;;;29.72;60.79;99962.84;4369084;32;19970;-83
2022/06/12 09:48:37;;;;;;;;;;;;;;;29.83;60.79;99953.66;4395754;32;20028;-83
2022/06/12 09:51:05;;;;;;;;;;;;;;;29.76;60.79;99945.41;4395179;32;20331;-83
2022/06/12 09:53:34;;;;;;;;;;;;;;;29.94;60.80;99950.63;4395212;32;19974;-83
2022/06/12 09:56:00;;;;;;;;;;;;;;;29.98;60.80;99943.06;4381331;32;20438;-83
2022/06/12 09:58:42;;;;;;;;;;;;;;;29.99;60.80;99942.88;4395171;32;19983;-83
2022/06/12 10:01:09;;;;;;;;;;;;;;;30.17;60.81;99943.56;4368799;32;20343;-83
2022/06/12 10:03:52;;;;;;;;;;;;;;;30.37;60.82;99933.28;4381240;32;20323;-83
2022/06/12 10:06:23;;;;;;;;;;;;;;;30.61;60.83;99924.34;4395104;32;20287;-83
2022/06/12 10:08:55;;;;;;;;;;;;;;;30.78;60.84;99927.81;4381892;32;19993;-83
2022/06/12 10:11:23;;;;;;;;;;;;;;;30.87;60.85;99912.47;4381409;32;19990;-83
2022/06/12 10:13:51;;;;;;;;;;;;;;;30.96;60.84;99917.63;4395033;32;19993;-83
2022/06/12 10:16:19;;;;;;;;;;;;;;;31.08;60.86;99918.09;4395192;32;20013;-83
2022/06/12 10:18:49;;;;;;;;;;;;;;;30.94;60.85;99922.34;4381350;32;19987;-83
2022/06/12 10:21:15;;;;;;;;;;;;;;;31.09;60.86;99917.06;4381301;32;20040;-83
2022/06/12 10:23:41;;;;;;;;;;;;;;;31.31;60.87;99910.06;4393653;32;19983;-84
2022/06/12 10:26:22;;;;;;;;;;;;;;;31.43;60.88;99922.06;4395041;32;20008;-84
2022/06/12 10:28:59;;;;;;;;;;;;;;;31.13;60.85;99903.09;4381240;32;19998;-84
2022/06/12 10:31:24;;;;;;;;;;;;;;;31.03;60.85;99912.41;4381390;32;20389;-83
2022/06/12 10:33:50;;;;;;;;;;;;;;;30.90;60.84;99907.59;4381185;32;19979;-84
2022/06/12 10:36:20;;;;;;;;;;;;;;;30.67;60.83;99907.53;4380398;32;20001;-84
2022/06/12 10:38:46;;;;;;;;;;;;;;;30.93;60.85;99911.78;4368763;32;20044;-84
2022/06/12 10:41:24;;;;;;;;;;;;;;;31.00;60.85;99902.84;4394852;32;20039;-84
2022/06/12 10:43:49;;;;;;;;;;;;;;;31.31;60.87;99902.84;4381169;32;19970;-84
2022/06/12 10:46:15;;;;;;;;;;;;;;;31.28;60.87;99899.66;4381089;32;19982;-84
2022/06/12 10:48:40;;;;;;;;;;;;;;;30.93;60.85;99904.53;4394882;32;19988;-84
2022/06/12 10:51:08;;;;;;;;;;;;;;;31.05;60.85;99910.37;4368541;32;20023;-84
2022/06/12 10:53:34;;;;;;;;;;;;;;;30.97;60.85;99902.34;4394744;32;20034;-83
2022/06/12 10:55:59;;;;;;;;;;;;;;;31.03;60.85;99893.59;4381046;32;20363;-84
2022/06/12 10:58:32;;;;;;;;;;;;;;;31.39;60.86;99891.16;4394686;32;20311;-83
2022/06/12 11:00:59;;;;;;;;;;;;;;;31.50;60.88;99884.53;4381064;32;20004;-83
2022/06/12 11:03:33;;;;;;;;;;;;;;;31.39;60.88;99893.84;4394831;32;19971;-83
2022/06/12 11:05:58;;;;;;;;;;;;;;;31.56;60.88;99890.03;4381370;32;19992;-84
2022/06/12 11:08:35;;;;;;;;;;;;;;;31.56;60.89;99878.44;4394856;32;20002;-83
2022/06/12 11:11:15;;;;;;;;;;;;;;;31.66;60.88;99884.38;4380996;32;20052;-83
2022/06/12 11:13:40;;;;;;;;;;;;;;;31.85;60.89;99875.84;4394726;32;19978;-84
2022/06/12 11:16:10;;;;;;;;;;;;;;;31.87;60.90;99876.47;4394605;32;19966;-84
2022/06/12 11:18:35;;;;;;;;;;;;;;;31.96;60.91;99877.25;4380941;32;19990;-84
2022/06/12 11:21:00;;;;;;;;;;;;;;;31.92;60.90;99882.16;4394441;32;20024;-84
2022/06/12 11:23:44;;;;;;;;;;;;;;;32.13;60.91;99872.50;4394388;32;19970;-84
2022/06/12 11:26:28;;;;;;;;;;;;;;;32.26;60.91;99875.44;4394496;32;19993;-84
2022/06/12 11:29:10;;;;;;;;;;;;;;;32.26;60.91;99875.44;4394653;32;20422;-84
2022/06/12 11:31:35;;;;;;;;;;;;;;;31.84;60.89;99874.16;4368488;32;19998;-84
2022/06/12 11:34:04;;;;;;;;;;;;;;;32.02;60.90;99871.13;4380611;32;20271;-84
2022/06/12 11:36:29;;;;;;;;;;;;;;;32.33;60.92;99873.66;4395106;32;20359;-84
2022/06/12 11:39:00;;;;;;;;;;;;;;;32.18;60.91;99867.41;4395888;32;19982;-84
2022/06/12 11:41:31;;;;;;;;;;;;;;;32.24;60.91;99875.59;4394322;32;20342;-84
2022/06/12 11:44:02;;;;;;;;;;;;;;;32.29;60.92;99869.69;4394281;32;19970;-84
2022/06/12 11:46:28;;;;;;;;;;;;;;;32.08;60.91;99866.84;4393856;32;20025;-83
2022/06/12 11:49:05;;;;;;;;;;;;;;;31.62;60.88;99875.00;4380598;32;20038;-84
2022/06/12 11:51:33;;;;;;;;;;;;;;;31.61;60.88;99865.25;4380502;32;20331;-84
2022/06/12 11:54:14;;;;;;;;;;;;;;;31.67;60.89;99864.53;4380254;32;20036;-84
2022/06/12 11:56:51;;;;;;;;;;;;;;;31.45;60.87;99864.37;4394125;32;20421;-84
2022/06/12 11:59:19;;;;;;;;;;;;;;;31.81;60.90;99866.47;4380727;32;19994;-83
2022/06/12 12:01:44;;;;;;;;;;;;;;;31.86;60.90;99858.66;4380355;32;19994;-84
2022/06/12 12:04:30;;;;;;;;;;;;;;;31.72;60.89;99859.50;4380293;32;19985;-84
2022/06/12 12:06:57;;;;;;;;;;;;;;;31.79;60.90;99860.41;4393641;32;19970;-84
2022/06/12 12:09:25;;;;;;;;;;;;;;;31.80;60.90;99853.19;4380470;32;20005;-84
2022/06/12 12:11:53;;;;;;;;;;;;;;;31.68;60.89;99850.88;4394159;32;20307;-84
2022/06/12 12:14:20;;;;;;;;;;;;;;;31.94;60.91;99847.81;4380537;32;19989;-84
2022/06/12 12:17:01;;;;;;;;;;;;;;;32.17;60.91;99845.03;4380461;32;19997;-84
2022/06/12 12:19:40;;;;;;;;;;;;;;;32.00;60.90;99838.16;4380781;32;20059;-84
2022/06/12 12:22:08;;;;;;;;;;;;;;;32.06;60.91;99832.03;4380751;32;19994;-84
2022/06/12 12:24:52;;;;;;;;;;;;;;;31.98;60.90;99830.28;4394637;32;19979;-84
2022/06/12 12:27:22;;;;;;;;;;;;;;;32.05;60.91;99830.38;4395413;32;19978;-84
2022/06/12 12:29:47;;;;;;;;;;;;;;;31.85;60.89;99827.38;4380819;32;19986;-84
2022/06/12 12:32:13;;;;;;;;;;;;;;;32.27;60.92;99831.31;4380374;32;20036;-84
2022/06/12 12:34:38;;;;;;;;;;;;;;;31.89;60.90;99820.59;4367492;32;31103;-84
2022/06/12 12:43:04;;;;;;;;;;;;;;;31.65;60.89;99820.81;4332001;33;19996;-84
2022/06/12 12:45:31;;;;;;;;;;;;;;;31.65;60.89;99812.75;4332136;33;19975;-85
2022/06/12 12:48:06;;;;;;;;;;;;;;;31.51;60.89;99811.72;4363321;32;20050;-84
2022/06/12 12:51:01;;;;;;;;;;;;;;;31.45;60.87;99813.25;4380427;32;20050;-84
2022/06/12 12:53:27;;;;;;;;;;;;;;;31.45;60.87;99815.94;4377696;32;19986;-84
2022/06/12 12:55:56;;;;;;;;;;;;;;;31.49;60.89;99800.31;4394027;32;19947;-84
2022/06/12 12:58:22;;;;;;;;;;;;;;;31.63;60.90;99795.94;4379406;32;19987;-84
2022/06/12 13:00:47;;;;;;;;;;;;;;;31.89;60.90;99795.53;4393939;32;19987;-84
2022/06/12 13:03:45;;;;;;;;;;;;;;;32.03;60.91;99805.47;4379761;32;23807;-84
2022/06/12 13:06:16;;;;;;;;;;;;;;;31.83;60.90;99799.81;4352121;32;19978;-84
2022/06/12 13:08:50;;;;;;;;;;;;;;;31.91;60.90;99799.72;4394203;32;19986;-84